The Florida Keys Marathon Airport
KMTH : now visible

Airfield :











YOU CAN JOIN US ON...

 
LOGIN :

Register | Disclaimer

   EN    FR    IT 

 









Legend :    VFR   Marginal VFR   IFR   Intensive IFR   Very Intensive IFR
Visi :
Ceiling :
>= 8 km
>= 3000ft
5 to 8 km
1000 to 3000 ft
1500m to 5 km
500 to 1000 ft
800 to 1500m
200 to 500 ft
< 800m
< 200 ft
Symbols :   Thunderstorms  Fog  Heavy snow  Heavy precipitations  Wind > 20 kt






- Airport Elevation : 5 ft


KMTH - The Florida Keys Marathon

CURRENT METAR :
  • 201528Z AUTO 04004KT 1 1/2SM +TSRA BR OVC037 22/21 A2998 RMK AO2 LTG DSNT ALQDS TSE17B21 P0061 T02220211 $

EXPIRED METARs :
  • 201506Z AUTO 00000KT 1/2SM +TSRA FG OVC031 22/21 A2998 RMK AO2 LTG DSNT ALQDS P0030 T02220211 $
  • 201453Z AUTO 00000KT 1SM +TSRA BR BKN038 OVC075 23/22 A2998 RMK AO2 LTG DSNT ALQDS TSE28B35E50B51 SLP150 P0042 60267 T02280222 53015 $
  • 201439Z AUTO 27003KT 2 1/2SM TSRA BR SCT050 BKN075 OVC090 23/22 A2995 RMK AO2 LTG DSNT ALQDS TSE28B35 P0025 T02330222 $
  • 201418Z AUTO 17004KT 3SM TSRA BR BKN047 OVC065 23/23 A2996 RMK AO2 LTG DSNT ALQDS P0019 T02330228 $
  • 201358Z AUTO 30003KT 1SM +TSRA BR OVC031 23/22 A2995 RMK AO2 LTG DSNT ALQDS P0008 T02330222 $
  • 201338Z AUTO 24005KT 3/4SM +TSRA BR BKN029 OVC060 24/22 A2995 RMK AO2 PK WND 21026/1310 LTG DSNT ALQDS PRESRR P0049 T02390222 $
  • 201322Z AUTO 17015G24KT 2 1/2SM +TSRA BR SCT033 OVC065 23/22 A2992 RMK AO2 PK WND 21026/1310 LTG DSNT ALQDS P0020 T02330217 $
  • 201313Z AUTO 20011G26KT 3SM TSRA BR BKN027 BKN060 OVC080 23/22 A2993 RMK AO2 PK WND 21026/1310 LTG DSNT ALQDS P0014 T02330217 $
  • 201307Z AUTO 20012G23KT 2 1/2SM +TSRA BR OVC031 24/22 A2991 RMK AO2 LTG DSNT ALQDS P0013 T02390217 $
  • 201253Z AUTO 16010G19KT 1 1/2SM +TSRA BR OVC025 23/21 A2993 RMK AO2 PK WND 25031/1231 LTG DSNT ALQDS SLP135 P0136 T02280206 $
  • 201238Z AUTO 19006G31KT 1/2SM +TSRA FG VV016 22/21 A2993 RMK AO2 PK WND 25031/1231 LTG DSNT ALQDS P0111 T02220211 $
  • 201217Z AUTO 17009G18KT 1 3/4SM +TSRA BR BKN024 BKN034 OVC043 23/22 A2993 RMK AO2 LTG DSNT ALQDS P0036 T02330217 $
  • 201200Z AUTO 13007KT 3SM +TSRA BR BKN020 BKN034 OVC085 23/22 A2992 RMK AO2 LTG DSNT ALQDS P0005 T02280217 $
  • 201153Z AUTO 13009KT 1 1/2SM +TSRA BR FEW010 OVC018 23/22 A2991 RMK AO2 PK WND 10027/1138 LTG DSNT ALQDS SLP128 P0182 60370 70370 T02280217 10289 20228 53022 $
  • 201135Z AUTO 10012G22KT 1 1/4SM +TSRA BR BKN010 BKN018 OVC037 23/22 A2991 RMK AO2 LTG DSNT ALQDS P0124 T02330222 $
  • 201117Z AUTO 20012G19KT 1 1/2SM +TSRA BR FEW014 OVC040 25/24 A2988 RMK AO2 LTG DSNT ALQDS P0035 T02500239 $
  • 201053Z AUTO 18008KT 7SM -TSRA FEW012 BKN042 OVC050 25/23 A2987 RMK AO2 LTG DSNT N-SE RAE0959B28 SLP115 P0002 T02500233 $

TAF KMTH
Valid from the 20 at 15:00 until the 21 at 12:00 UTC


201458Z 2015/2112 26005KT P6SM VCTS SCT030CB BKN050
TEMPO 2015/2017 1 1/2SM TSRA BKN030CB
FM201700 25007KT P6SM FEW015 SCT025
FM202100 30008KT P6SM FEW015 SCT025
KZMA FIR / North America



MET'MAP, your aeronautical weather chart ! - Copyright ORBIFLY December 2007 - Disclaimer

ORBIFLY MET'MAP TEAM :

Programming & Development : Alexandra Zaïnal
Original concept : Baudouin d'Aumeries
Technical & hardware support : Manuel Goepfert
Assistance : Marc-Olivier Méhu




SOURCES & CREDITS :

   NOAA       Earth
Advisory